Terminal Aerodrome Forecast
Issued by NWS Corpus Christi, TX

Home | Current Version | Previous Version | Text Only | Print | Product List | Glossary On
Versions: 1 2 3 4 5 6 7 8 9 10 11 12 13 14 15
000
FTUS44 KCRP 180500
TAFVCT
TAF
KVCT 180522Z 1806/1906 12008KT P6SM VCSH SCT015 BKN040
     FM180700 VRB04KT 3SM BR VCSH BKN010
      TEMPO 1809/1813 1SM -RA BR BKN005
     FM181500 VRB05KT P6SM VCSH FEW008 OVC020
     FM181800 36005KT P6SM BKN035
      TEMPO 1818/1821 -TSRA BKN010CB
     FM190100 14008KT P6SM OVC015=

USA.gov is the U.S. government's official web portal to all federal, state and local government web resources and services.